URWW

Volgograd International Airport

Volgograd, Russian Federation
TAF URWW 210158Z 2103/2112 36008G13MPS 9999 BKN011 BKN020CB TEMPO 2106/2112 33006G11MPS
Issued Valid From Valid To
Apr-21 @ 01:58 UTC
(2 hours ago)
Apr-21 @ 03:00 UTC
(50 minutes ago)
Apr-21 @ 12:00 UTC
(in 8 hours)
Apr-21 @ 03:00 to Apr-21 @ 12:00
TAF URWW 210158Z 2103/2112 36008G13MPS 9999 BKN011 BKN020CB
Wind Visibility Clouds
360° at 16 knots
 Gusting to 25 knots
10,000+ meters
  • Broken at 1,100' AGL
  • Broken at 2,000' AGL
Temporary Apr-21 @ 06:00 to Apr-21 @ 12:00
TEMPO 2106/2112 33006G11MPS
Wind
330° at 12 knots
 Gusting to 21 knots
TAF URWW 210158Z 2103/2112 36008G13MPS 9999 BKN011 BKN020CB TEMPO 2106/2112 33006G11MPS
Issued Apr-21 @ 01:58 UTC
(2 hours ago)
Valid From Apr-21 @ 03:00 UTC
(50 minutes ago)
Valid To Apr-21 @ 12:00 UTC
(in 8 hours)
Apr-21 @ 03:00 - Apr-21 @ 12:00
Wind Visibility
360° at 16 knots
 Gusting to 25 knots
10,000+ meters
Clouds
  • Broken at 1,100' AGL
  • Broken at 2,000' AGL
Temporary Apr-21 @ 06:00 - Apr-21 @ 12:00
Wind
330° at 12 knots
 Gusting to 21 knots